Terminal Aerodrome Forecast
Issued by NWS

Home | Current Version | Previous Version | Text Only | Print | Product List | Glossary On
Versions: 1 2 3 4 5 6 7 8 9 10 11 12 13 14 15 16 17 18 19 20 21 22 23
391
FTUS44 KLUB 222006 AAA
TAFCDS
TAF AMD
KCDS 222006Z 2220/2318 36009KT P6SM SCT060 BKN250
      TEMPO 2220/2224 TSRA BKN050CB=

USA.gov is the U.S. government's official web portal to all federal, state and local government web resources and services.